Time;durP1;ratioP1;P1;durP2;ratioP2;P2;SDS_P1;SDS_P2;PMS_P1;PMS_P2;Temp;Humidity;BMP_temperature;BMP_pressure;BME280_temperature;BME280_humidity;BME280_pressure;Samples;Min_cycle;Max_cycle;Signal;HPM_P1;HPM_P2
2021/07/15 00:00:46;;;;;;;0.73;0.73;;;;;;;18.32;60.99;100881.59;6217940;23;20706;-76
2021/07/15 00:03:16;;;;;;;0.80;0.80;;;;;;;18.31;61.37;100891.00;6218217;23;20011;-77
2021/07/15 00:05:42;;;;;;;0.70;0.70;;;;;;;18.21;61.44;100896.75;6247935;23;20000;-76
2021/07/15 00:08:10;;;;;;;0.73;0.73;;;;;;;18.13;61.57;100892.75;6242934;23;20034;-76
2021/07/15 00:10:37;;;;;;;0.68;0.68;;;;;;;18.04;61.88;100895.41;6248113;23;20061;-75
2021/07/15 00:13:06;;;;;;;0.68;0.68;;;;;;;17.93;62.17;100885.66;6248275;23;20023;-76
2021/07/15 00:15:34;;;;;;;0.98;0.98;;;;;;;17.89;62.25;100885.41;6261502;23;20004;-75
2021/07/15 00:17:59;;;;;;;0.60;0.60;;;;;;;17.86;61.94;100883.25;6263567;23;20004;-75
2021/07/15 00:20:26;;;;;;;0.80;0.57;;;;;;;17.76;62.17;100877.91;6222632;23;20015;-75
2021/07/15 00:22:52;;;;;;;0.70;0.70;;;;;;;17.76;62.48;100894.50;6214024;22;20016;-75
2021/07/15 00:25:20;;;;;;;0.80;0.80;;;;;;;17.62;62.55;100881.47;6213173;23;20001;-75
2021/07/15 00:27:46;;;;;;;0.98;0.98;;;;;;;17.61;62.81;100890.06;6215874;23;20360;-75
2021/07/15 00:30:13;;;;;;;0.60;0.60;;;;;;;17.59;63.02;100889.53;6187452;23;20008;-75
2021/07/15 00:32:38;;;;;;;0.50;0.50;;;;;;;17.53;63.26;100882.44;6214176;23;20451;-75
2021/07/15 00:35:06;;;;;;;0.75;0.75;;;;;;;17.49;63.52;100882.22;6214631;23;20004;-74
2021/07/15 00:37:32;;;;;;;1.00;0.90;;;;;;;17.54;63.48;100879.38;6214467;23;20050;-74
2021/07/15 00:39:58;;;;;;;0.60;0.60;;;;;;;17.55;63.49;100885.72;6216284;23;20384;-74
2021/07/15 00:42:23;;;;;;;1.00;1.00;;;;;;;17.54;63.60;100890.44;6212572;23;20359;-75
2021/07/15 00:44:49;;;;;;;1.30;1.20;;;;;;;17.56;64.32;100890.13;6187570;23;20012;-75
2021/07/15 00:47:14;;;;;;;1.08;1.08;;;;;;;17.52;64.36;100884.41;6188123;23;20012;-74
2021/07/15 00:49:40;;;;;;;1.48;1.38;;;;;;;17.51;64.57;100888.28;6182946;23;20004;-76
2021/07/15 00:52:11;;;;;;;1.30;1.20;;;;;;;17.44;64.73;100880.34;6162525;23;20035;-74
2021/07/15 00:54:41;;;;;;;2.40;1.50;;;;;;;17.44;65.21;100885.88;6184740;23;20426;-74
2021/07/15 00:57:07;;;;;;;1.38;1.27;;;;;;;17.44;65.37;100885.06;6211971;23;20091;-75
2021/07/15 00:59:33;;;;;;;1.83;1.73;;;;;;;17.37;65.67;100876.34;6215228;23;20032;-76
2021/07/15 01:01:58;;;;;;;1.95;1.65;;;;;;;17.40;66.05;100878.50;6212767;23;20058;-76
2021/07/15 01:04:24;;;;;;;1.80;1.70;;;;;;;17.39;66.27;100876.84;6156741;23;20012;-74
2021/07/15 01:06:49;;;;;;;1.98;1.88;;;;;;;17.34;66.90;100872.22;6213232;23;20015;-74
2021/07/15 01:09:15;;;;;;;4.60;1.83;;;;;;;17.35;66.42;100875.84;6213663;23;20325;-74
2021/07/15 01:12:18;;;;;;;3.83;1.60;;;;;;;17.36;66.37;100880.22;6211678;23;20015;-73
2021/07/15 01:15:10;;;;;;;1.40;1.40;;;;;;;17.31;66.62;100883.06;6186563;23;20030;-76
2021/07/15 01:17:59;;;;;;;1.80;1.70;;;;;;;17.27;66.52;100886.44;6183950;23;20008;-77
2021/07/15 01:20:40;;;;;;;2.50;1.70;;;;;;;17.22;66.63;100883.75;6213867;23;20005;-76
2021/07/15 01:23:24;;;;;;;2.47;1.80;;;;;;;17.17;67.27;100881.09;6215667;23;20016;-77
2021/07/15 01:26:09;;;;;;;4.45;1.50;;;;;;;17.15;66.99;100877.78;6188389;23;20314;-77
2021/07/15 01:29:02;;;;;;;1.50;1.40;;;;;;;17.07;66.77;100859.94;6190342;23;20008;-77
2021/07/15 01:31:32;;;;;;;5.45;1.30;;;;;;;17.05;66.98;100877.94;6216829;23;20286;-77
2021/07/15 01:34:01;;;;;;;2.35;2.17;;;;;;;16.98;67.23;100878.31;6218225;23;20007;-76
2021/07/15 01:36:30;;;;;;;1.77;1.65;;;;;;;16.95;67.10;100862.31;6199958;23;20025;-75
2021/07/15 01:39:01;;;;;;;1.92;1.83;;;;;;;17.00;67.17;100881.59;6228677;23;20043;-78
2021/07/15 01:41:31;;;;;;;1.60;1.50;;;;;;;16.97;67.90;100879.44;6199255;23;20001;-78
2021/07/15 01:44:07;;;;;;;1.88;1.77;;;;;;;16.93;67.53;100879.19;6218640;23;20308;-77
2021/07/15 01:46:34;;;;;;;1.73;1.70;;;;;;;16.98;67.34;100883.00;6214846;23;20005;-75
2021/07/15 01:49:02;;;;;;;1.80;1.70;;;;;;;16.96;67.74;100888.81;6219306;23;20012;-76
2021/07/15 01:51:27;;;;;;;6.07;1.88;;;;;;;16.91;68.03;100886.16;6217626;23;20511;-76
2021/07/15 01:53:53;;;;;;;2.00;1.90;;;;;;;16.90;68.18;100896.34;6182958;23;20001;-74
2021/07/15 01:56:21;;;;;;;2.15;2.05;;;;;;;16.89;68.27;100897.50;6187162;23;20009;-75
2021/07/15 01:58:48;;;;;;;2.03;1.92;;;;;;;16.86;68.60;100892.50;6159982;23;20447;-75
2021/07/15 02:01:14;;;;;;;2.67;1.75;;;;;;;16.81;68.38;100891.78;6188098;23;20000;-75
2021/07/15 02:03:48;;;;;;;1.83;1.73;;;;;;;16.72;68.50;100886.09;6186830;23;20009;-74
2021/07/15 02:06:14;;;;;;;1.90;1.80;;;;;;;16.75;68.32;100888.25;6210258;23;20005;-77
2021/07/15 02:08:43;;;;;;;2.67;1.83;;;;;;;16.68;68.51;100885.84;6189492;23;20043;-77
2021/07/15 02:11:10;;;;;;;1.55;1.55;;;;;;;16.64;69.01;100889.50;6220505;23;20019;-76
2021/07/15 02:13:37;;;;;;;2.35;2.25;;;;;;;16.56;68.90;100894.56;6192489;23;20467;-76
2021/07/15 02:16:03;;;;;;;2.30;1.80;;;;;;;16.53;69.05;100899.88;6192106;23;20063;-75
2021/07/15 02:18:29;;;;;;;2.10;2.00;;;;;;;16.47;69.26;100901.88;6190828;23;20087;-76
2021/07/15 02:20:57;;;;;;;1.63;1.63;;;;;;;16.44;69.65;100907.97;6215723;22;20023;-75
2021/07/15 02:23:23;;;;;;;2.00;1.90;;;;;;;16.35;69.94;100904.19;6189284;23;20008;-75
2021/07/15 02:25:51;;;;;;;1.85;1.75;;;;;;;16.36;70.26;100901.13;6216465;23;20005;-76
2021/07/15 02:28:20;;;;;;;1.80;1.70;;;;;;;16.33;70.07;100889.88;6218722;23;20000;-76
2021/07/15 02:30:48;;;;;;;1.65;1.55;;;;;;;16.34;70.07;100891.50;6195820;23;20008;-76
2021/07/15 02:33:17;;;;;;;1.63;1.52;;;;;;;16.32;69.88;100893.75;6169972;23;20004;-75
2021/07/15 02:35:48;;;;;;;1.17;1.17;;;;;;;16.22;69.88;100890.00;6220445;23;20023;-73
2021/07/15 02:38:22;;;;;;;1.42;1.40;;;;;;;16.19;69.66;100889.75;6220908;23;20087;-74
2021/07/15 02:40:48;;;;;;;1.55;1.45;;;;;;;16.25;70.13;100904.31;6192318;23;20046;-74
2021/07/15 02:43:14;;;;;;;1.38;1.38;;;;;;;16.22;69.61;100914.84;6196370;23;20008;-76
2021/07/15 02:45:40;;;;;;;1.40;1.30;;;;;;;16.17;70.10;100903.03;6222111;23;20005;-76
2021/07/15 02:48:05;;;;;;;1.83;1.23;;;;;;;16.14;70.17;100903.59;6170288;23;20976;-76
2021/07/15 02:50:31;;;;;;;2.28;1.50;;;;;;;16.16;70.44;100907.69;6195173;23;20008;-76
2021/07/15 02:52:58;;;;;;;2.15;1.33;;;;;;;16.17;70.51;100912.09;6196542;23;20012;-76
2021/07/15 02:55:25;;;;;;;1.25;1.25;;;;;;;16.13;70.07;100900.00;6220463;23;19997;-74
2021/07/15 02:58:12;;;;;;;1.60;1.50;;;;;;;16.20;70.38;100907.94;6223161;23;20060;-74
2021/07/15 03:00:46;;;;;;;1.15;1.15;;;;;;;16.11;70.01;100899.50;6220200;23;20062;-75
2021/07/15 03:03:31;;;;;;;1.60;1.50;;;;;;;16.16;70.54;100910.47;6195268;23;20005;-76
2021/07/15 03:06:08;;;;;;;0.82;0.82;;;;;;;16.17;70.25;100903.03;6194709;23;20102;-76
2021/07/15 03:08:43;;;;;;;0.95;0.95;;;;;;;16.21;70.14;100907.66;6220762;23;20005;-74
2021/07/15 03:11:09;;;;;;;0.87;0.87;;;;;;;16.18;70.07;100891.69;6192544;23;20085;-75
2021/07/15 03:13:37;;;;;;;1.10;1.10;;;;;;;16.30;69.60;100901.50;6219946;23;20244;-73
2021/07/15 03:16:04;;;;;;;1.25;1.15;;;;;;;16.30;69.75;100909.78;6194990;23;20020;-75
2021/07/15 03:18:30;;;;;;;1.30;1.30;;;;;;;16.21;70.17;100891.09;6222210;23;20008;-75
2021/07/15 03:21:03;;;;;;;1.25;1.23;;;;;;;16.26;70.01;100903.22;6218027;22;20332;-73
2021/07/15 03:23:31;;;;;;;2.55;1.35;;;;;;;16.21;69.79;100891.09;6220518;23;20011;-74
2021/07/15 03:25:58;;;;;;;0.90;0.90;;;;;;;16.15;69.75;100895.03;6220338;23;20012;-74
2021/07/15 03:28:28;;;;;;;1.25;1.15;;;;;;;16.19;69.66;100906.28;6199215;23;20086;-74
2021/07/15 03:30:56;;;;;;;3.88;1.08;;;;;;;16.19;69.75;100909.91;6222540;23;20007;-76
2021/07/15 03:33:23;;;;;;;3.55;1.15;;;;;;;16.19;69.75;100906.28;6244940;23;20745;-75
2021/07/15 03:35:49;;;;;;;1.30;1.20;;;;;;;16.13;70.09;100896.44;6247791;23;20009;-74
2021/07/15 03:38:15;;;;;;;1.38;1.38;;;;;;;16.13;69.89;100911.03;6215182;23;20005;-74
2021/07/15 03:40:41;;;;;;;1.50;1.45;;;;;;;16.10;69.97;100919.91;6220343;23;20001;-73
2021/07/15 03:43:10;;;;;;;1.00;1.00;;;;;;;16.08;70.02;100921.31;6218944;23;20004;-73
2021/07/15 03:45:37;;;;;;;0.85;0.85;;;;;;;16.08;70.06;100929.56;6221991;23;20004;-75
2021/07/15 03:48:03;;;;;;;1.25;1.25;;;;;;;16.04;70.01;100932.91;6218096;23;20322;-72
2021/07/15 03:50:31;;;;;;;0.93;0.93;;;;;;;16.03;70.10;100924.94;6219881;23;20019;-74
2021/07/15 03:53:05;;;;;;;0.80;0.80;;;;;;;16.07;69.98;100930.72;6216870;23;20434;-74
2021/07/15 03:55:35;;;;;;;1.35;1.25;;;;;;;16.09;69.69;100929.31;6217936;23;20058;-74
2021/07/15 03:58:04;;;;;;;0.90;0.90;;;;;;;16.05;69.93;100928.25;6218367;23;20001;-74
2021/07/15 04:00:30;;;;;;;0.77;0.77;;;;;;;16.10;69.48;100928.19;6217001;23;20016;-74
2021/07/15 04:03:02;;;;;;;0.70;0.70;;;;;;;16.03;69.18;100913.91;6218008;23;20013;-74
2021/07/15 04:05:29;;;;;;;0.70;0.70;;;;;;;16.14;69.83;100917.41;6219045;23;20479;-74
2021/07/15 04:07:58;;;;;;;1.05;0.95;;;;;;;16.15;69.05;100911.59;6223205;23;20004;-75
2021/07/15 04:10:26;;;;;;;0.40;0.40;;;;;;;16.25;69.07;100927.19;6221420;23;20004;-74
2021/07/15 04:12:54;;;;;;;1.73;0.60;;;;;;;16.20;69.07;100914.28;6245358;23;20058;-74
2021/07/15 04:15:23;;;;;;;0.70;0.55;;;;;;;16.32;68.39;100924.09;6220580;23;20036;-76
2021/07/15 04:17:48;;;;;;;1.63;0.50;;;;;;;16.31;68.92;100923.28;6220511;23;20013;-75
2021/07/15 04:20:19;;;;;;;0.60;0.60;;;;;;;16.33;68.39;100925.75;6223910;23;20067;-74
2021/07/15 04:22:48;;;;;;;1.40;0.80;;;;;;;16.30;68.53;100923.59;6222138;22;20388;-72
2021/07/15 04:25:20;;;;;;;0.80;0.80;;;;;;;16.31;68.53;100939.00;6221046;23;19997;-73
2021/07/15 04:27:49;;;;;;;0.98;0.80;;;;;;;16.25;68.73;100938.22;6215714;23;20008;-72
2021/07/15 04:30:16;;;;;;;0.77;0.77;;;;;;;16.23;68.51;100935.78;6214176;23;20024;-73
2021/07/15 04:32:43;;;;;;;0.80;0.80;;;;;;;16.15;69.04;100939.19;6213237;23;20119;-72
2021/07/15 04:35:13;;;;;;;1.25;1.20;;;;;;;16.13;69.39;100941.38;6213700;23;20006;-73
2021/07/15 04:37:40;;;;;;;0.88;0.88;;;;;;;16.15;69.04;100949.38;6215091;23;20412;-73
2021/07/15 04:40:08;;;;;;;0.65;0.65;;;;;;;16.14;68.97;100950.50;6223712;23;20104;-74
2021/07/15 04:42:36;;;;;;;1.20;1.10;;;;;;;16.14;69.18;100945.81;6197439;23;20004;-72
2021/07/15 04:45:02;;;;;;;0.80;0.80;;;;;;;16.15;69.20;100955.72;6166527;23;20032;-74
2021/07/15 04:47:30;;;;;;;0.90;0.80;;;;;;;16.17;69.13;100959.00;6217999;23;20004;-75
2021/07/15 04:49:55;;;;;;;0.80;0.80;;;;;;;16.18;68.73;100946.06;6213967;23;20023;-73
2021/07/15 04:52:23;;;;;;;0.82;0.82;;;;;;;16.20;68.95;100957.63;6215402;23;20340;-73
2021/07/15 04:54:50;;;;;;;0.70;0.70;;;;;;;16.20;69.01;100961.19;6196184;23;20035;-74
2021/07/15 04:57:16;;;;;;;1.00;1.00;;;;;;;16.18;68.93;100949.63;6195665;23;20005;-72
2021/07/15 04:59:42;;;;;;;0.90;0.90;;;;;;;16.25;68.59;100956.75;6168946;23;20019;-74
2021/07/15 05:02:09;;;;;;;0.90;0.90;;;;;;;16.28;68.68;100958.91;6219276;23;20009;-73
2021/07/15 05:04:35;;;;;;;3.65;0.90;;;;;;;16.21;68.54;100939.97;6215279;23;20000;-72
2021/07/15 05:07:01;;;;;;;1.95;0.80;;;;;;;16.30;68.84;100956.69;6215557;23;20039;-72
2021/07/15 05:09:26;;;;;;;0.95;0.95;;;;;;;16.34;68.87;100958.59;6225536;23;20009;-73
2021/07/15 05:11:52;;;;;;;0.60;0.60;;;;;;;16.42;68.26;100965.38;6222442;23;20012;-74
2021/07/15 05:14:17;;;;;;;0.50;0.50;;;;;;;16.40;68.19;100956.59;6201094;23;20124;-72
2021/07/15 05:16:45;;;;;;;3.33;1.35;;;;;;;16.51;68.81;100969.16;6174046;23;20394;-73
2021/07/15 05:19:11;;;;;;;0.88;0.65;;;;;;;16.56;68.13;100971.06;6227223;23;20080;-75
2021/07/15 05:21:36;;;;;;;1.42;1.33;;;;;;;16.55;68.17;100972.16;6214150;22;20060;-73
2021/07/15 05:24:02;;;;;;;0.80;0.80;;;;;;;16.62;67.68;100974.56;6206157;23;20136;-74
2021/07/15 05:26:29;;;;;;;1.15;1.10;;;;;;;16.66;68.18;100979.22;6252780;23;20005;-73
2021/07/15 05:28:55;;;;;;;1.10;1.10;;;;;;;16.65;67.92;100974.00;6203169;23;20008;-74
2021/07/15 05:31:21;;;;;;;0.70;0.70;;;;;;;16.66;67.89;100961.81;6254604;23;20030;-75
2021/07/15 05:33:49;;;;;;;0.90;0.90;;;;;;;16.71;67.71;100959.00;6254564;23;20034;-75
2021/07/15 05:36:15;;;;;;;0.70;0.70;;;;;;;16.80;67.61;100965.50;6199699;23;20003;-75
2021/07/15 05:38:42;;;;;;;1.00;1.00;;;;;;;16.90;67.67;100970.94;6251092;23;20004;-75
2021/07/15 05:41:09;;;;;;;0.95;0.95;;;;;;;16.90;67.53;100975.66;6207172;23;20064;-75
2021/07/15 05:43:48;;;;;;;1.02;0.90;;;;;;;16.91;67.38;100961.53;6231341;23;20004;-76
2021/07/15 05:46:13;;;;;;;0.60;0.60;;;;;;;17.05;67.20;100982.91;6232097;23;20031;-75
2021/07/15 05:48:39;;;;;;;0.63;0.63;;;;;;;17.06;67.31;100973.53;6256101;23;20008;-77
2021/07/15 05:51:26;;;;;;;0.60;0.60;;;;;;;17.19;67.23;100966.44;6255548;23;20095;-78
2021/07/15 05:54:10;;;;;;;0.47;0.47;;;;;;;17.35;66.81;100980.88;6229068;23;20031;-75
2021/07/15 05:56:36;;;;;;;0.85;0.38;;;;;;;17.46;66.76;100979.59;6223624;23;20050;-75
2021/07/15 05:59:01;;;;;;;0.20;0.20;;;;;;;17.70;66.35;100987.00;6203690;23;20004;-76
2021/07/15 06:01:34;;;;;;;0.60;0.60;;;;;;;17.76;66.21;100988.53;6248848;23;20475;-75
2021/07/15 06:03:59;;;;;;;0.85;0.85;;;;;;;17.72;66.20;100968.13;6225035;23;20023;-74
2021/07/15 06:06:35;;;;;;;;;;;;;;;;;;;;;
2021/07/15 06:09:10;;;;;;;1.27;0.80;;;;;;;17.83;65.47;100977.09;6229380;23;20371;-77
2021/07/15 06:11:36;;;;;;;1.40;0.90;;;;;;;17.87;65.68;100970.66;6228174;23;20064;-77
2021/07/15 06:14:56;;;;;;;0.80;0.80;;;;;;;18.09;65.19;100988.56;6227511;23;20008;-77
2021/07/15 06:17:34;;;;;;;1.42;1.08;;;;;;;18.06;65.42;100989.19;6243632;23;19996;-75
2021/07/15 06:20:04;;;;;;;0.82;0.82;;;;;;;17.99;65.18;100969.38;6254407;23;20000;-79
2021/07/15 06:26:08;;;;;;;0.70;0.70;;;;;;;18.24;65.25;101002.16;6237377;23;20023;-75
2021/07/15 06:28:37;;;;;;;0.40;0.40;;;;;;;18.12;65.37;100982.44;6172778;23;20005;-76
2021/07/15 06:31:21;;;;;;;0.75;0.63;;;;;;;18.45;65.64;101007.31;6198058;23;20390;-76
2021/07/15 06:33:51;;;;;;;1.08;0.50;;;;;;;18.39;65.27;100991.94;6224873;23;20395;-78
2021/07/15 06:36:56;;;;;;;;;;;;;;;;;;;;;
2021/07/15 06:39:30;;;;;;;0.70;0.70;;;;;;;18.67;64.50;101004.69;6185203;23;20032;-80
2021/07/15 06:45:31;;;;;;;0.95;0.75;;;;;;;18.93;64.65;101006.16;6229143;23;20019;-76
2021/07/15 06:47:59;;;;;;;0.60;0.60;;;;;;;19.16;64.27;101037.56;6215742;23;20323;-76
2021/07/15 06:50:24;;;;;;;4.80;0.93;;;;;;;19.19;64.33;101031.41;6226504;23;20051;-75
2021/07/15 06:52:53;;;;;;;0.38;0.30;;;;;;;19.22;64.23;101025.22;6230897;23;20316;-80
2021/07/15 06:55:29;;;;;;;0.60;0.60;;;;;;;19.38;63.21;101025.72;6230280;23;20004;-75
2021/07/15 06:57:54;;;;;;;0.70;0.70;;;;;;;19.44;63.21;101015.34;6198502;23;20000;-74
2021/07/15 07:00:29;;;;;;;1.42;0.60;;;;;;;19.75;63.58;101025.72;6207362;23;20000;-77
2021/07/15 07:03:12;;;;;;;0.55;0.40;;;;;;;20.05;62.69;101041.66;6208058;23;20494;-76
2021/07/15 07:05:43;;;;;;;0.60;0.60;;;;;;;20.15;62.28;101037.00;6232599;23;20156;-78
2021/07/15 07:08:08;;;;;;;3.78;0.68;;;;;;;20.20;61.72;101034.09;6226585;23;20084;-76
2021/07/15 07:10:36;;;;;;;0.85;0.75;;;;;;;20.14;61.60;101021.47;6230914;23;20000;-78
2021/07/15 07:13:02;;;;;;;0.68;0.68;;;;;;;20.16;61.16;101024.75;6230229;23;20035;-80
2021/07/15 07:15:30;;;;;;;0.40;0.35;;;;;;;20.32;61.39;101037.09;6230240;23;20023;-78
2021/07/15 07:17:56;;;;;;;0.50;0.47;;;;;;;20.29;61.55;101009.97;6225766;23;20019;-76
2021/07/15 07:20:21;;;;;;;0.43;0.43;;;;;;;20.53;61.45;101025.44;6224729;23;20009;-77
2021/07/15 07:22:54;;;;;;;0.70;0.70;;;;;;;20.58;61.36;101025.31;6223629;22;20431;-76
2021/07/15 07:25:22;;;;;;;0.60;0.60;;;;;;;20.77;60.54;101043.75;6226239;23;20009;-74
2021/07/15 07:27:48;;;;;;;0.60;0.60;;;;;;;20.78;60.67;101029.53;6225081;23;20004;-77
2021/07/15 07:30:16;;;;;;;0.40;0.40;;;;;;;20.96;60.24;101035.97;6178696;23;20032;-79
2021/07/15 07:32:44;;;;;;;0.98;0.50;;;;;;;21.06;60.80;101054.34;6230351;23;20047;-77
2021/07/15 07:35:11;;;;;;;0.70;0.70;;;;;;;21.10;60.01;101041.44;6180223;23;20378;-77
2021/07/15 07:37:39;;;;;;;0.70;0.57;;;;;;;21.27;60.10;101051.75;6228094;23;20008;-75
2021/07/15 07:40:07;;;;;;;0.60;0.57;;;;;;;21.22;59.76;101035.25;6189082;23;20020;-75
2021/07/15 07:42:35;;;;;;;0.50;0.50;;;;;;;21.33;59.89;101039.34;6227007;23;20005;-74
2021/07/15 07:45:04;;;;;;;0.65;0.65;;;;;;;21.45;59.65;101059.00;6201814;23;20725;-76
2021/07/15 07:47:30;;;;;;;2.95;0.98;;;;;;;21.38;59.62;101030.03;6181704;23;20062;-76
2021/07/15 07:49:58;;;;;;;1.80;0.90;;;;;;;21.52;59.30;101046.59;6231260;23;20008;-75
2021/07/15 07:52:35;;;;;;;0.55;0.55;;;;;;;21.62;59.54;101049.06;6229290;23;20087;-76
2021/07/15 07:55:00;;;;;;;1.98;0.73;;;;;;;21.70;59.68;101042.72;6182066;23;20008;-77
2021/07/15 07:57:28;;;;;;;2.05;0.95;;;;;;;21.77;58.92;101051.38;6199905;23;20434;-74
2021/07/15 07:59:56;;;;;;;1.40;0.68;;;;;;;21.67;58.53;101035.00;6225373;23;20000;-73
2021/07/15 08:02:24;;;;;;;1.52;0.85;;;;;;;21.72;58.29;101057.09;6223847;23;20004;-75
2021/07/15 08:04:51;;;;;;;1.67;0.93;;;;;;;21.64;58.66;101038.44;6173575;23;20005;-75
2021/07/15 08:07:19;;;;;;;0.77;0.77;;;;;;;21.70;58.83;101048.28;6171128;23;20008;-75
2021/07/15 08:09:46;;;;;;;0.70;0.70;;;;;;;21.86;58.44;101050.56;6225268;23;20012;-74
2021/07/15 08:12:15;;;;;;;1.15;0.88;;;;;;;22.05;58.19;101055.78;6218436;23;20056;-76
2021/07/15 08:14:41;;;;;;;1.33;0.80;;;;;;;22.24;57.83;101055.44;6223373;23;20068;-73
2021/07/15 08:17:06;;;;;;;0.73;0.73;;;;;;;22.54;57.19;101063.94;6197452;23;20036;-73
2021/07/15 08:19:50;;;;;;;1.30;0.50;;;;;;;22.82;56.62;101053.19;6221763;23;20039;-76
2021/07/15 08:23:06;;;;;;;0.57;0.57;;;;;;;23.02;56.41;101057.19;6203524;22;20082;-74
2021/07/15 08:25:37;;;;;;;0.70;0.70;;;;;;;23.25;55.79;101059.75;6186782;23;20021;-75
2021/07/15 08:28:03;;;;;;;0.82;0.77;;;;;;;23.46;55.06;101055.00;6215916;23;20012;-78
2021/07/15 08:30:28;;;;;;;2.38;0.60;;;;;;;23.74;54.30;101057.25;6216505;23;20016;-75
2021/07/15 08:32:54;;;;;;;0.30;0.30;;;;;;;23.92;53.87;101054.34;6205716;23;20001;-73
2021/07/15 08:35:19;;;;;;;0.60;0.60;;;;;;;24.11;53.46;101056.66;6216714;23;20007;-75
2021/07/15 08:37:45;;;;;;;1.20;0.98;;;;;;;24.16;52.76;101048.88;6211159;23;20373;-74
2021/07/15 08:40:11;;;;;;;0.60;0.60;;;;;;;24.17;52.50;101050.50;6211647;23;20008;-76
2021/07/15 08:42:38;;;;;;;0.85;0.38;;;;;;;24.13;51.92;101060.75;6214403;23;20011;-75
2021/07/15 08:45:08;;;;;;;1.27;0.68;;;;;;;24.07;51.90;101055.72;6209495;23;20365;-74
2021/07/15 08:47:39;;;;;;;0.65;0.65;;;;;;;23.98;52.31;101047.44;6236621;23;20035;-74
2021/07/15 08:50:06;;;;;;;0.93;0.50;;;;;;;23.97;52.09;101048.56;6211561;23;20004;-74
2021/07/15 08:52:34;;;;;;;0.50;0.50;;;;;;;23.98;52.94;101041.84;6213356;23;20004;-75
2021/07/15 08:57:42;;;;;;;0.60;0.60;;;;;;;24.11;52.42;101057.47;6228037;23;20015;-76
2021/07/15 09:00:11;;;;;;;0.47;0.47;;;;;;;24.15;51.83;101052.00;6214957;23;20428;-76
2021/07/15 09:02:37;;;;;;;0.50;0.50;;;;;;;24.20;51.57;101061.00;6219530;23;20331;-76
2021/07/15 09:05:07;;;;;;;6.53;0.88;;;;;;;24.20;51.43;101049.81;6211469;23;20009;-76
2021/07/15 09:07:32;;;;;;;5.10;1.10;;;;;;;24.21;51.90;101057.06;6239895;23;20084;-76
2021/07/15 09:09:58;;;;;;;0.50;0.50;;;;;;;24.18;51.48;101056.91;6215558;23;20393;-76
2021/07/15 09:12:24;;;;;;;0.60;0.55;;;;;;;24.19;52.09;101047.38;6239357;23;20050;-75
2021/07/15 09:14:53;;;;;;;0.98;0.90;;;;;;;24.32;51.87;101048.25;6209899;23;20012;-75
2021/07/15 09:17:30;;;;;;;0.70;0.70;;;;;;;24.50;52.14;101046.06;6240431;23;20142;-76
2021/07/15 09:19:57;;;;;;;0.50;0.50;;;;;;;24.63;51.39;101044.16;6215851;23;20065;-75
2021/07/15 09:22:26;;;;;;;0.38;0.38;;;;;;;24.82;51.65;101051.97;6216547;23;20005;-77
2021/07/15 09:24:53;;;;;;;1.67;0.85;;;;;;;25.08;51.33;101032.03;6205363;23;20020;-76
2021/07/15 09:27:28;;;;;;;0.82;0.47;;;;;;;25.48;50.86;101048.13;6168818;23;20016;-75
2021/07/15 09:30:14;;;;;;;0.60;0.60;;;;;;;25.95;50.17;101053.13;6216461;23;20039;-75
2021/07/15 09:32:52;;;;;;;0.60;0.60;;;;;;;26.33;48.88;101055.78;6194401;23;20004;-76
2021/07/15 09:35:31;;;;;;;0.57;0.57;;;;;;;26.65;47.93;101059.47;6217867;23;20004;-77
2021/07/15 09:38:09;;;;;;;0.63;0.60;;;;;;;26.92;46.89;101060.56;6218202;23;20009;-76
2021/07/15 09:40:39;;;;;;;0.40;0.40;;;;;;;27.16;46.82;101061.53;6219254;23;20031;-75
2021/07/15 09:43:23;;;;;;;0.40;0.40;;;;;;;27.46;45.60;101049.84;6217489;23;20001;-76
2021/07/15 09:45:58;;;;;;;1.55;0.63;;;;;;;27.57;45.02;101064.09;6215801;23;20155;-76
2021/07/15 09:48:49;;;;;;;;;;;;;;;27.92;44.17;101066.91;6195619;23;20008;-77
2021/07/15 09:51:41;;;;;;;1.52;0.60;;;;;;;27.87;43.95;101059.53;6173895;23;19908;-75
2021/07/15 09:59:49;;;;;;;0.93;0.50;;;;;;;27.81;43.37;101071.47;6276136;22;19915;-76
2021/07/15 10:02:33;;;;;;;0.38;0.38;;;;;;;27.66;43.76;101071.16;6248954;22;20016;-73
2021/07/15 10:04:58;;;;;;;0.85;0.70;;;;;;;27.43;43.28;101076.66;6276235;22;20082;-75
2021/07/15 10:07:25;;;;;;;0.60;0.60;;;;;;;27.22;43.95;101068.53;6275612;22;20060;-75
2021/07/15 10:10:14;;;;;;;1.90;0.50;;;;;;;27.08;43.82;101074.59;6245137;22;20299;-74
2021/07/15 10:12:40;;;;;;;0.73;0.70;;;;;;;26.86;43.88;101067.63;6272347;22;20004;-75
2021/07/15 10:15:10;;;;;;;0.43;0.43;;;;;;;26.71;44.11;101066.47;6278761;22;20031;-75
2021/07/15 10:17:46;;;;;;;0.60;0.60;;;;;;;26.68;44.38;101074.78;6279511;22;20028;-78
2021/07/15 10:20:17;;;;;;;0.30;0.30;;;;;;;26.59;44.40;101072.94;6252544;22;20357;-76
2021/07/15 10:22:44;;;;;;;0.60;0.60;;;;;;;26.49;44.73;101081.88;6280190;22;20063;-76
2021/07/15 10:25:11;;;;;;;0.68;0.60;;;;;;;26.41;44.90;101074.44;6277367;22;20015;-75
2021/07/15 10:27:40;;;;;;;0.55;0.55;;;;;;;26.44;45.32;101077.31;6271839;22;20035;-76
2021/07/15 10:30:08;;;;;;;0.30;0.30;;;;;;;26.51;44.81;101070.31;6250921;22;20004;-76
2021/07/15 10:32:36;;;;;;;0.40;0.40;;;;;;;26.55;44.63;101066.41;6274979;22;20059;-76
2021/07/15 10:35:04;;;;;;;0.60;0.50;;;;;;;26.58;44.50;101068.50;6281768;22;20008;-75
2021/07/15 10:37:33;;;;;;;0.77;0.50;;;;;;;26.61;44.95;101067.78;6285429;22;20126;-74
2021/07/15 10:40:00;;;;;;;0.82;0.55;;;;;;;26.81;44.85;101065.91;6257193;22;20046;-73
2021/07/15 10:42:26;;;;;;;0.60;0.60;;;;;;;27.04;44.98;101062.47;6254206;22;20012;-75
2021/07/15 10:44:53;;;;;;;0.38;0.38;;;;;;;27.20;44.41;101062.44;6248101;22;20083;-75
2021/07/15 10:47:19;;;;;;;1.13;0.50;;;;;;;27.32;44.08;101062.34;6247773;22;20008;-75
2021/07/15 10:49:50;;;;;;;0.30;0.30;;;;;;;27.22;43.35;101060.09;6275592;22;20087;-74
2021/07/15 10:52:18;;;;;;;0.30;0.30;;;;;;;27.20;43.55;101065.25;6221851;22;20438;-74
2021/07/15 10:54:44;;;;;;;0.55;0.55;;;;;;;27.12;43.08;101063.47;6272733;22;20014;-73
2021/07/15 10:57:11;;;;;;;0.63;0.45;;;;;;;26.97;43.10;101068.72;6273042;22;20093;-73
2021/07/15 10:59:37;;;;;;;0.32;0.32;;;;;;;26.82;43.60;101063.91;6246808;22;20027;-74
2021/07/15 11:02:16;;;;;;;1.65;0.65;;;;;;;26.64;43.40;101067.06;6247175;22;20009;-74
2021/07/15 11:04:42;;;;;;;0.75;0.75;;;;;;;26.48;43.79;101074.63;6271631;22;20049;-72
2021/07/15 11:07:31;;;;;;;0.35;0.35;;;;;;;26.41;44.45;101082.84;6248225;22;20004;-75
2021/07/15 11:10:21;;;;;;;0.90;0.63;;;;;;;26.28;44.72;101085.72;6250144;22;20003;-73
2021/07/15 11:12:57;;;;;;;1.48;0.30;;;;;;;26.22;44.46;101084.34;6277370;22;20004;-75
2021/07/15 11:15:43;;;;;;;0.68;0.40;;;;;;;26.23;44.91;101088.78;6250280;22;20055;-75
2021/07/15 11:18:13;;;;;;;;;;;;;;;26.40;44.16;101087.66;6279575;22;20010;-73
2021/07/15 11:20:39;;;;;;;0.30;0.30;;;;;;;26.29;44.56;101090.13;6272538;22;19910;-75
2021/07/15 11:23:07;;;;;;;0.68;0.50;;;;;;;26.35;45.06;101098.31;6244320;22;20015;-74
2021/07/15 11:25:39;;;;;;;0.60;0.60;;;;;;;26.42;44.86;101087.28;6273188;22;20010;-76
2021/07/15 11:28:14;;;;;;;0.38;0.38;;;;;;;26.41;44.80;101102.47;6273307;22;20035;-80
2021/07/15 11:30:39;;;;;;;0.55;0.55;;;;;;;26.33;44.60;101100.63;6275377;22;20430;-77
2021/07/15 11:33:27;;;;;;;0.50;0.50;;;;;;;26.20;44.80;101103.50;6277565;22;20064;-75
2021/07/15 11:36:11;;;;;;;0.50;0.50;;;;;;;26.01;44.56;101106.16;6252179;22;20023;-75
2021/07/15 11:38:46;;;;;;;0.60;0.43;;;;;;;25.83;44.96;101095.19;6282839;22;20000;-72
2021/07/15 11:41:14;;;;;;;0.50;0.50;;;;;;;25.78;44.97;101107.44;6280978;22;20342;-74
2021/07/15 11:43:52;;;;;;;0.52;0.52;;;;;;;25.69;45.82;101117.16;6279673;22;20007;-77
2021/07/15 11:46:21;;;;;;;0.65;0.65;;;;;;;25.56;45.51;101108.78;6249830;22;20003;-74
2021/07/15 11:48:51;;;;;;;0.63;0.63;;;;;;;25.51;45.48;101111.00;6254386;22;20094;-74
2021/07/15 11:51:29;;;;;;;0.52;0.52;;;;;;;25.50;45.96;101100.97;6274648;22;20012;-75
2021/07/15 11:54:16;;;;;;;1.77;0.65;;;;;;;25.63;46.31;101107.34;6251033;22;20012;-75
2021/07/15 11:56:45;;;;;;;0.60;0.60;;;;;;;25.80;46.06;101115.50;6277106;22;20075;-77
2021/07/15 11:59:11;;;;;;;0.50;0.50;;;;;;;26.00;45.30;101112.91;6279353;22;20020;-74